createdAt,value
2022-08-09T00:00:04.951Z,102585.25
2022-08-09T00:02:33.571Z,102589.63
2022-08-09T00:05:03.556Z,102592.28
2022-08-09T00:07:46.541Z,102593.22
2022-08-09T00:10:21.197Z,102584.34
2022-08-09T00:12:51.522Z,102583.38
2022-08-09T00:15:19.410Z,102587.75
2022-08-09T00:18:06.203Z,102593.06
2022-08-09T00:20:32.041Z,102593.00
2022-08-09T00:23:07.855Z,102592.09
2022-08-09T00:25:46.763Z,102598.19
2022-08-09T00:28:19.222Z,102601.66
2022-08-09T00:30:48.971Z,102601.53
2022-08-09T00:33:15.482Z,102602.38
2022-08-09T00:35:42.720Z,102601.47
2022-08-09T00:38:12.460Z,102595.28
2022-08-09T00:40:39.456Z,102599.69
2022-08-09T00:44:27.173Z,102600.47
2022-08-09T00:46:06.940Z,102605.78
2022-08-09T00:48:33.951Z,102602.16
2022-08-09T00:51:10.201Z,102604.81
2022-08-09T00:53:39.709Z,102604.75
2022-08-09T00:56:09.771Z,102603.78
2022-08-09T00:58:36.842Z,102602.78
2022-08-09T01:01:09.971Z,102601.81
2022-08-09T01:03:50.207Z,102602.59
2022-08-09T01:06:18.039Z,102605.22
2022-08-09T01:08:49.682Z,102599.88
2022-08-09T01:11:21.019Z,102596.28
2022-08-09T01:13:58.947Z,102606.84
2022-08-09T01:16:30.077Z,102601.44
2022-08-09T01:19:01.727Z,102603.19
2022-08-09T01:21:45.173Z,102602.22
2022-08-09T01:24:36.807Z,102599.53
2022-08-09T01:27:12.686Z,102604.75
2022-08-09T01:29:41.370Z,102602.94
2022-08-09T01:32:31.872Z,102604.66
2022-08-09T01:35:28.293Z,102615.28
2022-08-09T01:38:07.789Z,102611.66
2022-08-09T01:40:39.879Z,102606.31
2022-08-09T01:43:06.555Z,102603.56
2022-08-09T01:45:33.593Z,102601.69
2022-08-09T01:48:05.868Z,102607.81
2022-08-09T01:50:37.201Z,102608.66
2022-08-09T01:53:19.401Z,102613.06
2022-08-09T01:55:47.633Z,102614.81
2022-08-09T01:58:14.857Z,102616.53
2022-08-09T02:00:46.047Z,102611.09
2022-08-09T02:03:14.605Z,102618.09
2022-08-09T02:06:03.369Z,102626.00
2022-08-09T02:08:38.673Z,102631.34
2022-08-09T02:11:17.201Z,102630.44
2022-08-09T02:13:55.409Z,102631.31
2022-08-09T02:16:35.267Z,102631.31
2022-08-09T02:19:20.095Z,102633.06
2022-08-09T02:21:49.528Z,102639.22
2022-08-09T02:24:26.118Z,102633.91
2022-08-09T02:26:55.044Z,102633.88
2022-08-09T02:29:27.321Z,102634.69
2022-08-09T02:31:56.308Z,102638.16
2022-08-09T02:34:38.680Z,102629.25
2022-08-09T02:37:12.151Z,102629.25
2022-08-09T02:39:45.258Z,102638.88
2022-08-09T02:42:18.120Z,102630.84
2022-08-09T02:44:46.827Z,102637.06
2022-08-09T02:47:15.040Z,102634.38
2022-08-09T02:50:01.327Z,102631.69
2022-08-09T02:52:31.862Z,102632.59
2022-08-09T02:55:03.245Z,102632.59
2022-08-09T02:58:00.454Z,102628.94
2022-08-09T03:00:34.524Z,102630.66
2022-08-09T03:03:06.352Z,102632.47
2022-08-09T03:05:35.134Z,102627.13
2022-08-09T03:08:02.585Z,102627.06
2022-08-09T03:10:29.450Z,102629.66
2022-08-09T03:12:56.706Z,102630.53
2022-08-09T03:15:24.698Z,102639.34
2022-08-09T03:18:11.227Z,102640.16
2022-08-09T03:20:39.093Z,102632.06
2022-08-09T03:23:15.169Z,102631.97
2022-08-09T03:26:02.100Z,102643.38
2022-08-09T03:28:32.777Z,102645.09
2022-08-09T03:30:59.475Z,102643.31
2022-08-09T03:33:53.498Z,102640.59
2022-08-09T03:36:19.982Z,102643.19
2022-08-09T03:38:47.354Z,102645.81
2022-08-09T03:41:16.351Z,102650.16
2022-08-09T03:44:03.739Z,102651.03
2022-08-09T03:46:30.469Z,102649.13
2022-08-09T03:48:59.014Z,102642.00
2022-08-09T03:51:57.535Z,102645.47
2022-08-09T03:54:18.036Z,102641.91
2022-08-09T03:56:57.954Z,102641.97
2022-08-09T03:59:27.532Z,102643.75
2022-08-09T04:02:11.198Z,102653.44
2022-08-09T04:04:40.656Z,102648.13
2022-08-09T04:07:12.142Z,102649.88
2022-08-09T04:09:44.392Z,102652.47
2022-08-09T04:12:30.783Z,102659.53
2022-08-09T04:15:00.547Z,102656.06
2022-08-09T04:17:29.557Z,102661.38
2022-08-09T04:19:56.494Z,102662.34
2022-08-09T04:22:22.924Z,102659.78
2022-08-09T04:24:49.268Z,102668.66
2022-08-09T04:27:16.973Z,102660.75
2022-08-09T04:29:49.619Z,102665.22
2022-08-09T04:32:16.586Z,102665.25
2022-08-09T04:34:54.098Z,102656.41
2022-08-09T04:37:23.986Z,102657.38
2022-08-09T04:40:11.507Z,102658.34
2022-08-09T04:42:45.729Z,102662.91
2022-08-09T04:45:14.878Z,102660.31
2022-08-09T04:47:58.576Z,102662.22
2022-08-09T04:50:31.931Z,102671.19
2022-08-09T04:53:02.082Z,102671.34
2022-08-09T04:55:37.944Z,102672.38
2022-08-09T04:58:15.051Z,102672.50
2022-08-09T05:00:41.403Z,102666.50
2022-08-09T05:03:30.624Z,102669.31
2022-08-09T05:06:06.663Z,102672.13
2022-08-09T05:08:35.128Z,102680.28
2022-08-09T05:11:02.470Z,102679.53
2022-08-09T05:13:29.028Z,102677.03
2022-08-09T05:15:59.433Z,102686.91
2022-08-09T05:18:42.622Z,102687.06
2022-08-09T05:21:24.714Z,102688.22
2022-08-09T05:24:02.247Z,102692.03
2022-08-09T05:26:36.913Z,102702.06
2022-08-09T05:29:17.351Z,102697.84
2022-08-09T05:31:57.711Z,102693.66
2022-08-09T05:34:30.169Z,102702.88
2022-08-09T05:36:58.722Z,102701.31
2022-08-09T05:39:30.027Z,102707.78
2022-08-09T05:42:04.591Z,102695.72
2022-08-09T05:44:34.812Z,102700.56
2022-08-09T05:47:04.960Z,102704.44
2022-08-09T05:50:23.442Z,102703.03
2022-08-09T05:52:19.230Z,102711.31
2022-08-09T05:54:46.076Z,102715.03
2022-08-09T05:57:17.566Z,102710.72
2022-08-09T05:59:45.493Z,102700.16
2022-08-09T06:02:11.854Z,102703.78
2022-08-09T06:04:44.778Z,102700.25
2022-08-09T06:07:21.353Z,102696.66
2022-08-09T06:09:54.356Z,102700.22
2022-08-09T06:12:28.518Z,102704.66
2022-08-09T06:14:54.935Z,102708.25
2022-08-09T06:17:21.255Z,102706.47
2022-08-09T06:19:47.566Z,102710.06
2022-08-09T06:22:15.703Z,102710.94
2022-08-09T06:24:42.051Z,102705.56
2022-08-09T06:27:08.412Z,102709.16
2022-08-09T06:29:47.776Z,102712.69
2022-08-09T06:33:13.561Z,102719.78
2022-08-09T06:35:09.332Z,102718.91
2022-08-09T06:37:49.804Z,102717.97
2022-08-09T06:40:23.972Z,102715.19
2022-08-09T06:42:50.874Z,102720.50
2022-08-09T06:46:05.267Z,102724.03
2022-08-09T06:48:03.621Z,102729.34
2022-08-09T06:50:31.085Z,102724.00
2022-08-09T06:53:00.698Z,102731.13
2022-08-09T06:55:31.727Z,102721.34
2022-08-09T06:58:04.367Z,102729.28
2022-08-09T07:00:56.552Z,102729.22
2022-08-09T07:03:26.941Z,102735.34
2022-08-09T07:06:03.998Z,102729.97
2022-08-09T07:08:31.924Z,102731.75
2022-08-09T07:10:58.245Z,102741.44
2022-08-09T07:13:27.837Z,102734.22
2022-08-09T07:16:42.522Z,102731.53
2022-08-09T07:18:41.807Z,102740.50
2022-08-09T07:21:09.336Z,102741.25
2022-08-09T07:23:36.683Z,102742.28
2022-08-09T07:26:22.665Z,102742.28
2022-08-09T07:29:08.526Z,102744.03
2022-08-09T07:31:38.458Z,102739.47
2022-08-09T07:34:19.511Z,102747.50
2022-08-09T07:36:47.433Z,102747.50
2022-08-09T07:39:20.550Z,102758.06
2022-08-09T07:42:00.148Z,102752.50
2022-08-09T07:44:51.046Z,102752.63
2022-08-09T07:47:16.213Z,102752.53
2022-08-09T07:50:04.736Z,102745.28
2022-08-09T07:52:29.431Z,102749.94
2022-08-09T07:54:56.603Z,102750.88
2022-08-09T07:57:23.949Z,102758.22
2022-08-09T08:00:03.631Z,102756.50
2022-08-09T08:02:30.515Z,102763.47
2022-08-09T08:04:57.277Z,102759.69
2022-08-09T08:08:44.047Z,102762.72
2022-08-09T08:10:11.607Z,102764.63
2022-08-09T08:12:43.070Z,102757.25
2022-08-09T08:15:11.475Z,102763.59
2022-08-09T08:17:53.115Z,102761.19
2022-08-09T08:20:29.065Z,102759.53
2022-08-09T08:23:03.436Z,102756.16
2022-08-09T08:25:40.425Z,102760.53
2022-08-09T08:28:11.134Z,102766.63
2022-08-09T08:30:40.870Z,102766.13
2022-08-09T08:33:12.196Z,102750.41
2022-08-09T08:36:00.524Z,102756.78
2022-08-09T08:38:29.967Z,102754.47
2022-08-09T08:40:57.167Z,102751.94
2022-08-09T08:43:24.409Z,102751.47
2022-08-09T08:46:03.989Z,102755.38
2022-08-09T08:48:42.955Z,102755.94
2022-08-09T08:51:20.213Z,102768.25
2022-08-09T08:54:03.247Z,102763.47
2022-08-09T08:56:32.678Z,102764.28
2022-08-09T08:59:00.984Z,102764.06
2022-08-09T09:01:52.375Z,102759.19
2022-08-09T09:04:27.337Z,102766.91
2022-08-09T09:06:55.593Z,102764.09
2022-08-09T09:09:41.258Z,102764.16
2022-08-09T09:12:16.490Z,102767.25
2022-08-09T09:14:44.219Z,102770.72
2022-08-09T09:17:10.885Z,102773.69
2022-08-09T09:19:43.013Z,102775.31
2022-08-09T09:22:11.973Z,102771.63
2022-08-09T09:24:49.268Z,102778.56
2022-08-09T09:28:04.363Z,102771.53
2022-08-09T09:30:28.825Z,102783.94
2022-08-09T09:33:16.728Z,102777.94
2022-08-09T09:36:02.744Z,102774.31
2022-08-09T09:38:39.400Z,102768.00
2022-08-09T09:41:07.199Z,102770.44
2022-08-09T09:44:10.316Z,102774.81
2022-08-09T09:46:43.002Z,102778.78
2022-08-09T09:49:18.511Z,102773.91
2022-08-09T09:52:02.916Z,102769.84
2022-08-09T09:54:34.681Z,102770.75
2022-08-09T09:58:03.317Z,102774.44
2022-08-09T09:59:58.453Z,102772.81
2022-08-09T10:02:26.865Z,102773.78
2022-08-09T10:05:06.798Z,102768.00
2022-08-09T10:07:33.683Z,102773.44
2022-08-09T10:10:03.302Z,102772.50
2022-08-09T10:12:32.845Z,102773.47
2022-08-09T10:15:07.106Z,102779.34
2022-08-09T10:17:55.754Z,102771.97
2022-08-09T10:20:27.569Z,102777.22
2022-08-09T10:23:12.285Z,102771.41
2022-08-09T10:26:04.310Z,102768.53
2022-08-09T10:28:27.028Z,102777.00
2022-08-09T10:34:11.482Z,102767.59
2022-08-09T10:36:27.896Z,102763.59
2022-08-09T10:38:59.731Z,102770.28
2022-08-09T10:41:28.078Z,102767.41
2022-08-09T10:44:01.276Z,102772.25
2022-08-09T10:46:28.393Z,102779.69
2022-08-09T10:49:00.967Z,102773.84
2022-08-09T10:51:40.765Z,102767.50
2022-08-09T10:54:12.445Z,102762.94
2022-08-09T10:56:41.227Z,102768.81
2022-08-09T10:59:30.684Z,102768.38
2022-08-09T11:03:15.528Z,102764.44
2022-08-09T11:05:04.690Z,102764.47
2022-08-09T11:07:56.934Z,102752.44
2022-08-09T11:10:37.448Z,102757.63
2022-08-09T11:13:50.995Z,102756.00
2022-08-09T11:16:35.097Z,102748.63
2022-08-09T11:19:02.587Z,102748.63
2022-08-09T11:21:57.036Z,102751.41
2022-08-09T11:24:51.959Z,102748.16
2022-08-09T11:28:02.775Z,102749.22
2022-08-09T11:30:32.573Z,102753.41
2022-08-09T11:33:00.230Z,102756.16
2022-08-09T11:35:35.253Z,102756.28
2022-08-09T11:38:32.373Z,102750.59
2022-08-09T11:41:37.515Z,102756.41
2022-08-09T11:44:05.047Z,102744.56
2022-08-09T11:46:50.585Z,102745.50
2022-08-09T11:49:17.194Z,102740.66
2022-08-09T11:53:03.586Z,102737.63
2022-08-09T11:55:08.693Z,102734.06
2022-08-09T11:57:56.815Z,102735.25
2022-08-09T12:00:28.167Z,102741.47
2022-08-09T12:02:55.756Z,102728.78
2022-08-09T12:05:23.113Z,102721.97
2022-08-09T12:07:49.981Z,102726.44
2022-08-09T12:10:39.124Z,102725.09
2022-08-09T12:14:08.320Z,102730.28
2022-08-09T12:15:58.360Z,102726.88
2022-08-09T12:18:29.655Z,102732.47
2022-08-09T12:20:59.074Z,102736.25
2022-08-09T12:23:56.589Z,102726.22
2022-08-09T12:26:12.902Z,102733.19
2022-08-09T12:29:14.482Z,102730.63
2022-08-09T12:31:59.313Z,102719.31
2022-08-09T12:34:33.356Z,102724.06
2022-08-09T12:37:09.450Z,102724.66
2022-08-09T12:40:01.051Z,102719.56
2022-08-09T12:42:28.104Z,102716.03
2022-08-09T12:44:56.708Z,102714.13
2022-08-09T12:47:26.155Z,102707.97
2022-08-09T12:50:11.300Z,102710.47
2022-08-09T12:52:42.762Z,102708.44
2022-08-09T12:56:16.286Z,102698.06
2022-08-09T12:58:27.380Z,102703.28
2022-08-09T13:00:55.231Z,102705.34
2022-08-09T13:03:53.579Z,102706.25
2022-08-09T13:06:25.300Z,102707.88
2022-08-09T13:09:06.141Z,102703.28
2022-08-09T13:11:33.761Z,102695.66
2022-08-09T13:14:38.099Z,102697.72
2022-08-09T13:16:51.707Z,102692.75
2022-08-09T13:20:07.725Z,102696.03
2022-08-09T13:22:37.550Z,102698.63
2022-08-09T13:25:13.767Z,102710.97
2022-08-09T13:27:56.132Z,102698.56
2022-08-09T13:31:11.143Z,102700.56
2022-08-09T13:33:11.664Z,102697.56
2022-08-09T13:36:39.268Z,102704.25
2022-08-09T13:38:54.286Z,102708.50
2022-08-09T13:41:51.800Z,102698.59
2022-08-09T13:43:57.557Z,102694.13
2022-08-09T13:47:13.058Z,102694.97
2022-08-09T13:49:18.082Z,102696.47
2022-08-09T13:51:58.686Z,102711.09
2022-08-09T13:54:27.638Z,102702.38
2022-08-09T13:56:56.845Z,102704.94
2022-08-09T13:59:25.316Z,102709.13
2022-08-09T14:01:56.110Z,102696.38
2022-08-09T14:04:27.957Z,102702.78
2022-08-09T14:07:04.178Z,102704.03
2022-08-09T14:09:30.956Z,102692.97
2022-08-09T14:12:01.773Z,102710.22
2022-08-09T14:14:41.983Z,102698.59
2022-08-09T14:17:12.542Z,102703.44
2022-08-09T14:19:39.104Z,102702.94
2022-08-09T14:22:06.995Z,102714.44
2022-08-09T14:24:35.486Z,102726.78
2022-08-09T14:27:02.236Z,102721.22
2022-08-09T14:30:34.620Z,102727.63
2022-08-09T14:32:16.276Z,102723.63
2022-08-09T14:34:46.082Z,102724.53
2022-08-09T14:37:12.382Z,102733.03
2022-08-09T14:39:47.032Z,102727.75
2022-08-09T14:42:30.357Z,102725.81
2022-08-09T14:45:00.116Z,102724.47
2022-08-09T14:47:44.860Z,102713.72
2022-08-09T14:50:16.289Z,102719.63
2022-08-09T14:52:43.856Z,102717.41
2022-08-09T14:55:20.485Z,102717.66
2022-08-09T14:57:47.473Z,102713.16
2022-08-09T15:00:15.392Z,102715.59
2022-08-09T15:02:41.677Z,102717.31
2022-08-09T15:05:08.245Z,102720.56
2022-08-09T15:07:35.438Z,102727.00
2022-08-09T15:10:07.099Z,102726.31
2022-08-09T15:12:37.919Z,102724.44
2022-08-09T15:15:04.736Z,102727.84
2022-08-09T15:17:42.655Z,102721.13
2022-08-09T15:21:53.274Z,102726.53
2022-08-09T15:24:03.094Z,102728.09
2022-08-09T15:25:51.915Z,102714.88
2022-08-09T15:28:26.314Z,102720.66
2022-08-09T15:31:00.801Z,102707.88
2022-08-09T15:34:15.445Z,102711.56
2022-08-09T15:36:16.400Z,102703.06
2022-08-09T15:38:42.862Z,102710.31
2022-08-09T15:41:10.042Z,102706.25
2022-08-09T15:43:38.550Z,102693.38
2022-08-09T15:46:31.808Z,102690.94
2022-08-09T15:49:04.856Z,102698.44
2022-08-09T15:52:02.164Z,102697.19
2022-08-09T15:54:33.436Z,102701.69
2022-08-09T15:57:09.547Z,102690.69
2022-08-09T15:59:37.113Z,102697.38
2022-08-09T16:02:04.014Z,102692.22
2022-08-09T16:04:32.039Z,102689.91
2022-08-09T16:07:01.940Z,102693.56
2022-08-09T16:09:32.532Z,102685.44
2022-08-09T16:12:15.686Z,102690.19
2022-08-09T16:14:42.198Z,102682.03
2022-08-09T16:17:09.206Z,102684.63
2022-08-09T16:19:36.834Z,102682.22
2022-08-09T16:22:03.363Z,102678.59
2022-08-09T16:24:33.567Z,102679.88
2022-08-09T16:27:00.631Z,102678.34
2022-08-09T16:29:36.806Z,102688.28
2022-08-09T16:32:19.048Z,102682.81
2022-08-09T16:34:56.702Z,102690.28
2022-08-09T16:37:55.932Z,102696.44
2022-08-09T16:40:12.595Z,102695.94
2022-08-09T16:42:44.866Z,102693.25
2022-08-09T16:45:12.905Z,102681.63
2022-08-09T16:48:42.730Z,102678.56
2022-08-09T16:50:33.819Z,102680.31
2022-08-09T16:53:01.788Z,102684.31
2022-08-09T16:55:31.545Z,102678.66
2022-08-09T16:58:16.606Z,102679.84
2022-08-09T17:00:43.152Z,102684.41
2022-08-09T17:03:21.837Z,102679.44
2022-08-09T17:06:08.439Z,102690.88
2022-08-09T17:08:44.436Z,102683.47
2022-08-09T17:11:24.523Z,102680.50
2022-08-09T17:14:01.627Z,102682.97
2022-08-09T17:16:28.542Z,102681.28
2022-08-09T17:18:55.066Z,102679.72
2022-08-09T17:21:21.626Z,102679.72
2022-08-09T17:24:21.190Z,102684.38
2022-08-09T17:26:38.373Z,102680.94
2022-08-09T17:29:05.052Z,102686.22
2022-08-09T17:31:38.888Z,102685.56
2022-08-09T17:34:06.818Z,102686.81
2022-08-09T17:36:53.797Z,102689.56
2022-08-09T17:39:20.542Z,102697.78
2022-08-09T17:41:51.523Z,102690.88
2022-08-09T17:44:47.227Z,102687.66
2022-08-09T17:47:05.882Z,102691.34
2022-08-09T17:49:36.899Z,102696.03
2022-08-09T17:52:22.232Z,102693.41
2022-08-09T17:54:49.683Z,102696.28
2022-08-09T17:57:20.506Z,102694.63
2022-08-09T18:00:05.179Z,102693.00
2022-08-09T18:02:34.099Z,102700.19
2022-08-09T18:05:00.557Z,102697.63
2022-08-09T18:07:27.054Z,102701.22
2022-08-09T18:10:05.054Z,102700.47
2022-08-09T18:12:40.862Z,102698.72
2022-08-09T18:15:18.436Z,102693.50
2022-08-09T18:18:03.822Z,102692.69
2022-08-09T18:20:57.017Z,102689.25
2022-08-09T18:24:09.999Z,102691.16
2022-08-09T18:26:03.481Z,102676.03
2022-08-09T18:30:41.160Z,102685.94
2022-08-09T18:31:24.787Z,102690.44
2022-08-09T18:33:58.894Z,102685.16
2022-08-09T18:36:32.580Z,102683.47
2022-08-09T18:39:02.875Z,102681.81
2022-08-09T18:41:29.723Z,102676.47
2022-08-09T18:44:03.016Z,102670.28
2022-08-09T18:46:51.209Z,102676.63
2022-08-09T18:49:17.093Z,102675.78
2022-08-09T18:51:55.280Z,102669.56
2022-08-09T18:54:28.837Z,102683.91
2022-08-09T18:57:05.516Z,102681.31
2022-08-09T18:59:49.030Z,102688.53
2022-08-09T19:02:16.219Z,102686.78
2022-08-09T19:04:47.283Z,102690.41
2022-08-09T19:07:16.479Z,102684.19
2022-08-09T19:10:15.691Z,102692.22
2022-08-09T19:12:30.352Z,102689.53
2022-08-09T19:14:57.229Z,102698.44
2022-08-09T19:17:23.547Z,102699.34
2022-08-09T19:19:58.822Z,102700.25
2022-08-09T19:22:27.524Z,102702.03
2022-08-09T19:25:12.084Z,102710.00
2022-08-09T19:27:40.222Z,102711.78
2022-08-09T19:30:24.905Z,102711.75
2022-08-09T19:32:53.567Z,102716.22
2022-08-09T19:35:26.322Z,102727.75
2022-08-09T19:37:56.455Z,102733.94
2022-08-09T19:40:24.553Z,102742.81
2022-08-09T19:43:05.286Z,102737.41
2022-08-09T19:45:40.511Z,102742.69
2022-08-09T19:48:10.637Z,102750.66
2022-08-09T19:50:51.303Z,102756.84
2022-08-09T19:53:20.710Z,102752.31
2022-08-09T19:56:01.868Z,102751.41
2022-08-09T19:58:32.842Z,102746.88
2022-08-09T20:00:59.226Z,102755.75
2022-08-09T20:04:13.911Z,102748.63
2022-08-09T20:06:23.676Z,102741.47
2022-08-09T20:08:51.399Z,102742.34
2022-08-09T20:11:18.826Z,102744.97
2022-08-09T20:13:54.360Z,102743.09
2022-08-09T20:16:38.149Z,102743.03
2022-08-09T20:19:43.134Z,102742.03
2022-08-09T20:21:57.235Z,102738.44
2022-08-09T20:24:32.120Z,102734.78
2022-08-09T20:27:01.247Z,102746.28
2022-08-09T20:29:32.711Z,102749.78
2022-08-09T20:32:28.967Z,102753.25
2022-08-09T20:34:50.802Z,102747.88
2022-08-09T20:37:22.564Z,102759.38
2022-08-09T20:40:17.548Z,102754.88
2022-08-09T20:42:37.809Z,102755.72
2022-08-09T20:46:01.974Z,102750.34
2022-08-09T20:47:55.156Z,102760.00
2022-08-09T20:50:48.475Z,102752.00
2022-08-09T20:53:35.220Z,102751.91
2022-08-09T20:56:00.864Z,102754.53
2022-08-09T20:58:33.349Z,102745.56
2022-08-09T21:01:33.039Z,102751.72
2022-08-09T21:05:48.481Z,102751.66
2022-08-09T21:06:41.592Z,102759.56
2022-08-09T21:09:11.658Z,102758.69
2022-08-09T21:14:34.724Z,102762.97
2022-08-09T21:17:02.381Z,102757.59
2022-08-09T21:20:18.051Z,102754.84
2022-08-09T21:22:41.095Z,102753.03
2022-08-09T21:25:26.798Z,102751.22
2022-08-09T21:28:04.421Z,102750.31
2022-08-09T21:30:33.816Z,102755.53
2022-08-09T21:33:03.545Z,102762.63
2022-08-09T21:35:40.896Z,102766.09
2022-08-09T21:38:21.123Z,102755.50
2022-08-09T21:40:58.057Z,102754.47
2022-08-09T21:43:31.417Z,102763.28
2022-08-09T21:46:11.725Z,102753.47
2022-08-09T21:48:42.416Z,102753.44
2022-08-09T21:51:13.992Z,102762.28
2022-08-09T21:53:41.488Z,102755.97
2022-08-09T21:56:33.720Z,102755.03
2022-08-09T21:58:54.361Z,102756.75
2022-08-09T22:01:26.224Z,102764.72
2022-08-09T22:04:07.773Z,102766.47
2022-08-09T22:06:34.092Z,102762.84
2022-08-09T22:09:01.307Z,102764.56
2022-08-09T22:12:09.337Z,102760.06
2022-08-09T22:14:14.787Z,102759.97
2022-08-09T22:16:41.227Z,102762.53
2022-08-09T22:19:23.718Z,102758.94
2022-08-09T22:21:54.028Z,102761.53
2022-08-09T22:24:24.819Z,102757.97
2022-08-09T22:26:52.248Z,102756.19
2022-08-09T22:29:19.011Z,102764.13
2022-08-09T22:31:56.698Z,102757.84
2022-08-09T22:34:25.808Z,102753.38
2022-08-09T22:36:52.801Z,102747.13
2022-08-09T22:39:47.131Z,102747.91
2022-08-09T22:42:06.149Z,102754.03
2022-08-09T22:44:47.931Z,102754.88
2022-08-09T22:48:18.483Z,102751.28
2022-08-09T22:50:02.406Z,102760.06
2022-08-09T22:52:28.722Z,102755.59
2022-08-09T22:54:56.003Z,102754.69
2022-08-09T22:57:22.322Z,102747.59
2022-08-09T22:59:59.437Z,102746.66
2022-08-09T23:02:27.363Z,102750.13
2022-08-09T23:04:54.662Z,102751.88
2022-08-09T23:08:22.096Z,102751.84
2022-08-09T23:10:30.219Z,102752.69
2022-08-09T23:12:57.366Z,102749.09
2022-08-09T23:15:23.868Z,102756.09
2022-08-09T23:17:50.189Z,102756.91
2022-08-09T23:20:16.526Z,102763.88
2022-08-09T23:22:42.866Z,102755.84
2022-08-09T23:25:10.818Z,102748.75
2022-08-09T23:27:37.158Z,102745.19
2022-08-09T23:30:23.431Z,102747.84
2022-08-09T23:32:49.729Z,102746.06
2022-08-09T23:35:16.033Z,102748.63
2022-08-09T23:37:42.331Z,102746.81
2022-08-09T23:40:09.018Z,102754.72
2022-08-09T23:42:35.716Z,102757.28
2022-08-09T23:45:03.974Z,102756.41
2022-08-09T23:47:33.569Z,102753.66
2022-08-09T23:49:59.893Z,102760.63
2022-08-09T23:52:26.284Z,102755.19
2022-08-09T23:54:52.664Z,102759.56
2022-08-09T23:57:18.982Z,102750.72
